Timeline UpdatesTrip UpdatesNews PostsPvt Posts♥♥Travel TipsAdmin PostsConv PostsFollowed PostsChat RequestsBlog PostsPNR Posts

Disclaimer
Search
 
 
Mon Nov 24, 2014 00:25:06 ISTHomeTrainsΣChainsAtlasPNRForumGalleryNewsFAQTripsMembersLoginFeedback
No Recent News for this Train
Other Trains in the News **new
Latest...
MST holders permitted to travel in IInd class general coaches between Saharanpur-Merrut-Ghaziabad.
Sun Nov 23, 2014 (07:51PM)
⇐ Return Journey: Train# 19019

19020/Dehradun - Mumbai Bandra Terminus Express

Time-Table HAS CHANGED.
Sep 03 2014 (11:17AM)
Change Departure Station:
Change Arrival Station:
Post a Train Travel TipPost a Train Travel Tip **new
Post a Comment/Question/Picture/VideoPost a Comment/Question/Picture/Video
Pantry/Catering
✕ NO Pantry Car
✓ Catering Avbl
Loco/Rake Reversals
SRE/Saharanpur Junction (6); LRJ/Laksar Junction (4);
RSA - Rake Sharing
Rake/Coach Composition
LOCO-SLR-HCPV-GEN-GEN-AB1-S1-S2-S3-S4-S5-S6-S7-S8-S9-SLR
Loco
GZB WAP-7 NZM-BDTS. ddn to nzm tkd wdp 3a. By Er...
Read more...
Ankit Shotra Bhagat Entry# 595554
News    PNR    Forum    Time-Table    Availability    Fare Chart    Map    Arr/Dep History    Trips    Gallery    ΣChains    X/O    Timeline    
Travel Time: 6h 25m    18 halts    Distance: 267 km    Avg Speed: 41 km/hr
Type: Mail/Express
Zone: WR/Western
Departs @ 07:50 (Avg 17m late)
Platform# 2
SMTWTFS
Kota Junction/KOTA 
Arrives @ 14:15 (Avg 8m late)
Platform# 4
SMTWTFS
Ratlam Junction/RTM 

18 halts. 33 intermediate Stations between Kota Junction and Ratlam Junction

Show ALL intermediate Stations  Show Old Time-Table

#TrkCodeStation NameX/OArrivesAvgDepartsAvgHaltPFDay#KmSpeedElevZoneAddress
1%--%DDNDehradun (4)  -10:35 10:30+321-773.138648mNRDehradun, Uttarakhand
2%--%DWODoiwala  11:04 11:01+611:06 11:03+62m--1-753.341484mNRDehradun, Uttarakhand
3%--%RWLRaiwala Junction (2)X  11:38 11:33+1211:40 11:35+202m21-732.617361mNRRishikesh, Uttarakhand
4%--%MOTCMotichur (2)  12:00 11:58+1012:02 12:00+162m11-726.018312mNRHaridwar, Uttarakhand
5|--|HWHaridwar Junction (9)X  12:15+1312:45+1530m31-721.448294mNRHaridwar, Uttarakhand
6%--%JWPJwalapurX  12:53 12:50+2012:55 12:52+212m--1-717.520292mNRHaridwar, Uttarakhand
7%--%LRJLaksar Junction (4)X14:00+2114:25+1725m--1-694.553238mNRLaksar, Uttarakhand
8/==/RKRoorkee (3)X  14:43 14:45+1714:45 14:50+152 5m31-676.746264mNRRoorkee - 247667, Uttarakhand
9/==/SRESaharanpur Junction (6)X15:35+1516:05+830m41-642.048276mNRSaharanpur, Uttar Pradesh
10%--%DBDDeoband (2)  16:50 16:48+1916:52 16:50+212m21-607.844258mNRSaharanpur, Uttar Pradesh
11%--%MOZMuzaffarnagar (3)X  17:20 17:23+1917:22 17:25+302m21-583.863247mNRMuzaffarNagar, Uttar Pradesh
12%--%KATKhatauli (2)  17:42 17:46+3317:44 17:48+342m11-561.676239mNRKhatauli, Uttar Pradesh
13%--%MUTMeerut Cantt. (2)  18:08 18:11+4018:10 18:13+402m11-532.512230mNRMeerut, Uttar Pradesh
14%--%MTCMeerut City Junction (6)X18:35+2919:20+1245m41-528.273229mNRMeerut, Uttar Pradesh
15%==%MDNRModinagar (2)X  19:34 19:36+1619:36 19:38+172m21-508.755221mNRGhaziabad, Uttar Pradesh
16%==%MUDMuradnagar (2)X  19:45 19:49+1719:47 19:51+162m21-498.659220mNRGhaziabad, Uttar Pradesh
17%==%GZNNew Ghaziabad (2)XO  20:02 20:03+620:04 20:05+62m21-486.914213mNRGhaziabad, Uttar Pradesh
18%==%GZBGhaziabad Junction (6)XO  20:30 20:31+720:32 20:33+112m41-481.034217mNRGhaziabad, Uttar Pradesh
19/==/SBBSahibabad Junction (5)X  20:41 20:45+1420:43 20:46+142 1m--1-474.333209mNRGhaziabad, Uttar Pradesh
20/==/NZMDelhi Hazrat Nizamuddin (7)O21:15+2021:55+1840m11-458.225209mNRNew Delhi 110013, Delhi NCT
21/==/TKDTuglakabad (2)O  22:18+1722:20+192m11-448.544213mNRNear Tughlakabad Metro Station, Delhi NCT
22/==/FDBFaridabad (4)O  22:44 22:35+1622:46 22:36+182 1m31-437.435206mNRold Faridabad, Haryana
23/==/BVHBallabgarh (5)XO  22:58 22:50+1623:00 22:52+172m--1-429.429203mNRFaridabad, Haryana
24/==/PWLPalwal (8)X  23:36+423:38+52m--1-408.285200mNRPalwal, Haryana
25/==/KSVKosi Kalan (3)O  00:08+2400:10+252m22-365.729189mNCRKosi Kalan, Uttar Pradesh
26/==/MTJMathura Junction (10)XO  01:35+201:45 01:40+710 5m32-324.361179mNCRMathura, Uttar Pradesh
27/==/BTEBharatpur Junction (5)  02:10 02:13+402:15+75 2m--2-290.784174mWCRBharatpur, Rajasthan
28/==/BXNBayana Junction (3)X  02:45+902:47+102m--2-248.870198mWCRBayana, Rajasthan
29/==/HANHindaun City (2)  03:15+1503:17+182m--2-215.956230mWCRKarauli, Rajasthan
30/==/SMBJShri Mahabirji (3)O  03:26 03:28+1703:28 03:30+172m--2-205.741240mWCRKarauli, Rajasthan
31/==/GGCGangapur City (3)  04:10 04:20+104:20 04:25+610 5m--2-171.663270mWCRGangapur, Rajasthan
32/==/MLZMalarnaX  04:50 04:57+704:52 04:59+82m--2-137.986236mWCRSawai Madhopur, Rajasthan
33/==/SWMSawai Madhopur Junction (4)X  05:20+1505:25+145m--2-107.778266mWCRSawai Madhopur, Rajasthan
34/==/IDGIndargarh Sumerganj Mandi (2)X  05:48 05:53+1505:50 05:55+172m--2-71.466247mWCRIndargarh, Rajasthan
35/==/LKELakheri (3)  05:58 06:05+1706:00 06:07+182m--2-60.569228mWCRBundi, Rajasthan
36/==/KPTNKeshorai PatanXO  06:38 06:48+2006:40 06:50+212m--2-13.453243mWCRSH 33, Rajasthan
37/==/GQLGurlaO  06:48 06:59+2306:50 07:00+252 1m--2-5.411251mWCRSH 33, Rajasthan
38|--|KOTAKota Junction (5)»X07:30+1107:50+1720m220.033256mWCRKota, Rajasthan
39/==/DKNTDakaniya Talav (2)  08:01 08:07+1508:03 08:08+182 1m229.379278mWCRKota, Rajasthan
40/==/DARADara  08:30 08:37+1908:32 08:39+202m--247.563354mWCRDara, Rajasthan
41/==/MKXMorak (2)X  08:48 08:53+2108:50 08:55+222m--262.242337mWCRMorak, Rajasthan
42/==/RMARamganj Mandi Junction (3)  09:03 09:08+1909:05 09:10+242m--271.357358mWCRRamganj Mandi, Rajasthan
43/==/JHWJhalawar Road (3)  09:18 09:23+2209:20 09:25+222m--283.655361mWCRJhalawar City, Rajasthan
44/==/BWMBhawani Mandi (3)  09:38 09:43+2009:40 09:45+252m--2100.176384mWCRBhawani Mandi, Madhya Pradesh
45/==/GOHGaroth (2)  09:58 10:03+2610:00 10:05+262m12122.828441mWCRMadhya Pradesh 458880, Madhya Pradesh
46/==/SGZShamgarh (3)X  10:25 10:28+1510:30+225 2m--2133.667463mWCRMandsaur, Madhya Pradesh
47/==/SVASuwasra (2)  10:42+2310:44+252m--2147.066450mWCRSuwasra, Madhya Pradesh
48/==/CMUChau Mahla (3)  10:58+2511:00+272m12162.435426mWCRJhalawar, Rajasthan
49/==/THURThuriaX  11:24+1611:26+192m--2176.621430mWCRMDR 45, Madhya Pradesh
50/==/VMAVikramgarh Alot (2)  11:48+811:50+152m12184.261443mWCRKota Division, Madhya Pradesh
51/==/LNRLuni Richha  12:03+1712:05+172m--2197.528471mWCRAlote, Madhya Pradesh
52/==/MEPMahidpur Road  12:28+312:30+62m--2208.129493mWCRGogapur, Madhya Pradesh
53/==/NADNagda Junction (4)  13:05+413:15+710m--2225.264468mWRNagda, Madhya Pradesh
54/==/KUHKhachrod (2)  13:26 13:28+913:28 13:30+102m--2239.057497mWRUjjain, Madhya Pradesh
55/==/RNHRunkheraX  13:39 13:41+813:41 13:42+92 1m--2249.555478mWRUjjain, Madhya Pradesh
56/==/BODBangrodX  13:48 13:50+1113:50 13:51+112 1m--2256.825484mWRRatlam, Madhya Pradesh
57/==/RTMRatlam Junction (7)•X  14:15+814:35+1120m42266.670495mWRRatlam 457001, Madhya Pradesh
58/==/RTIRaoti (2)  14:56 14:58+1614:58 14:59+162 1m--2293.565409mWRState Highway 39A, Madhya Pradesh
59/==/BOGBhairongarh (2)  15:08 15:10+1615:10 15:11+162 1m--2305.445374mWRBhairongarh Railway Station, Madhya Pradesh
60/==/BMIBamnia (2)  15:17 15:19+1715:19 15:21+162m--2311.442392mWRBamnia, Madhya Pradesh
61/==/AGRAmargarh (2)  15:25 15:27+1715:27 15:28+172 1m--2315.552410mWRSH 39A, Madhya Pradesh
62/==/PCNPanch Pipila (2)  15:37 15:39+1615:39 15:40+162 1m--2325.076369mWRSH 39A, Madhya Pradesh
63/==/THDRThandla Road (2)X  15:49 15:51+1715:51 15:53+172m--2338.960317mWRJhabua, Madhya Pradesh
64/==/MGNMeghnagar (3)  15:59 16:01+1816:01 16:03+172m--2346.973317mWRJhabua, Madhya Pradesh
65/==/ANASAnas (2)  16:13 16:15+1916:15 16:16+192 1m--2361.568288mWRMadhya Pradesh 389154 ?, Madhya Pradesh
66/==/BIOBordi (2)  16:21 16:23+1916:23 16:24+202 1m--2369.458289mWRNational Highway 59, Gujarat
67/==/DHDDahod (3)  16:35+2516:40 16:37+295 2m--2380.064313mWRDahod, Gujarat
68/==/LMKLimkheda  17:06 17:08+2717:08 17:09+272 1m--2413.060205mWRLimkheda, Gujarat
69/==/PPDPiplod Junction  17:15 17:17+2717:17 17:19+262m--2420.979209mWRPiplod, Gujarat
70/==/SATSant Road (2)X  17:26 17:28+2717:28 17:30+252m22432.820169mWROrwara, Gujarat
71/==/GDAGodhra Junction (3)X  18:30+418:35+65m102453.154122mWRGodhra, Gujarat
72/==/KRSAKharsaliya (2)  18:45 18:47+818:47 18:48+82 1m--2464.076107mWRPanchmahal, Gujarat
73/==/DRLDerolX  18:56 18:58+918:58 19:00+92m12476.76881mWRKalol, Gujarat
74/==/CPNChampaner Road JunctionXO  19:09 19:11+919:11 19:13+92m--2489.27578mWRPanchmahal, Gujarat
75/==/SMLASamlaya Junction (3)X  19:20 19:22+919:22 19:24+92m--2500.45267mWRVadodara, Gujarat
76/==/BRCVadodara Junction (7)  19:55+1720:05+1810m32527.08136mWRVadodara 390005, Gujarat
77/==/MYGMiyagam Karjan (2)  20:25 20:27+2220:27 20:28+222 1m--2556.87029mWRKarjan, Gujarat
78/==/BHBharuch Junction (5)X  21:01 21:03+2121:03 21:05+212m42597.56219mWRBharuch, Gujarat
79/==/AKVAnkleshwar Junction (4)X  21:12 21:14+1921:14 21:16+192m22606.99319mWRAnkleshwar, Gujarat
80/==/KSBKosamba Junction (3)X21:29 21:28+2521:31 21:30+232m--2625.43130mWRKosamba, Gujarat
81/==/STSurat (4)X  22:30+422:38+58m22656.87419mWRSurat 395001, Gujarat
82/==/NVSNavsari (3)  23:03 23:02+1023:05+122 3m--2686.47914mWRNavsari, Gujarat
83/==/BIMBilimora Junction (4)X  23:21+1723:23+172m--2707.63611mWRBilimora, Gujarat
84/==/BLValsad (3)  23:53+1223:55+202m32725.53815mWRValsad, Gujarat
85/==/VAPIVapi (3)X  00:36+900:38+122m--3751.86827mWRVapi, Gujarat
86/==/PLGPalghar (3)  02:04 01:50+2502:06 02:02+222 12m--3833.33519mWRPalghar, Maharashtra
87/==/VRVirar (8)  02:56+702:58+82m--3864.4536mWRDist. Palghar, Maharashtra
88/==/BVIMumbai Borivali (8)  03:30 03:27+503:32+52 5m53890.22319mWRMumbai - 400092, Maharashtra
89/==/BDTSMumbai Bandra Terminus (5)  04:20-3-13909.0-4mWRMumbai 400050, Maharashtra
Scroll to Top
Scroll to Bottom